MST,Max TemperatureF,Mean TemperatureF,Min TemperatureF,Max Dew PointF,MeanDew PointF,Min DewpointF,Max Humidity, Mean Humidity, Min Humidity, Max Sea Level PressureIn, Mean Sea Level PressureIn, Min Sea Level PressureIn, Max VisibilityMiles, Mean VisibilityMiles, Min VisibilityMiles, Max Wind SpeedMPH, Mean Wind SpeedMPH, Max Gust SpeedMPH,PrecipitationIn, CloudCover, Events, WindDirDegrees
2013-4-1,75,60,45,29,22,14,48,26,11,29.94,29.86,29.81,10,10,10,22,11,30,0.00,0,Rain,253
2013-4-2,71,58,44,21,16,7,38,22,9,29.99,29.83,29.77,10,10,10,20,10,29,0.00,0,Rain,265
2013-4-3,73,59,45,24,18,7,40,22,9,29.97,29.92,29.86,10,10,10,17,9,24,0.00,0,,262
2013-4-4,78,64,51,27,18,6,37,19,6,30.01,29.94,29.87,10,10,10,13,7,16,0.00,0,,225
2013-4-5,79,62,46,28,18,12,34,19,9,30.09,29.87,29.78,10,10,10,23,10,33,0.00,0,,247
2013-4-6,77,62,48,31,27,22,48,28,13,29.89,29.82,29.76,10,10,10,18,10,28,0.00,0,,258
2013-4-7,75,62,48,32,26,21,50,26,13,29.82,29.74,29.65,10,10,10,18,11,26,0.00,0,,233
2013-4-8,73,63,46,36,30,24,66,32,18,29.65,29.46,29.32,10,10,5,46,21,58,0.04,0,Rain,214
2013-4-9,55,47,39,36,29,17,77,51,22,29.83,29.67,29.46,10,9,4,36,20,44,0.03,5,Rain,241
2013-4-10,59,48,37,25,21,17,59,35,22,29.93,29.85,29.80,10,10,10,20,13,30,0.00,1,Rain,252
2013-4-11,73,54,36,25,19,10,60,30,9,29.93,29.81,29.70,10,10,10,18,8,20,0.00,0,,244
2013-4-12,72,58,43,22,18,14,38,22,11,29.76,29.71,29.65,10,10,10,14,6,22,0.00,1,,264
2013-4-13,73,57,41,26,20,15,47,22,11,29.93,29.74,29.66,10,10,10,21,9,26,0.00,0,,253
2013-4-14,73,62,50,32,27,18,43,27,13,29.72,29.68,29.62,10,10,10,24,17,33,0.00,0,,231
2013-4-15,75,64,54,36,28,21,41,27,13,29.72,29.67,29.62,10,10,10,31,20,41,0.00,0,,220
2013-4-16,75,65,55,43,24,10,58,25,9,29.72,29.68,29.64,10,10,10,29,21,40,0.00,0,,218
2013-4-17,60,50,39,41,22,6,57,32,17,29.93,29.77,29.65,10,10,10,33,17,41,0.00,0,,255
2013-4-18,63,50,37,8,6,1,28,20,9,30.06,29.96,29.92,10,10,10,13,7,16,0.00,0,,240
2013-4-19,71,54,37,3,-2,-6,24,11,5,30.08,29.98,29.88,10,10,10,18,10,29,0.00,0,,106
2013-4-20,75,60,46,12,1,-7,19,10,5,30.07,29.87,29.81,10,10,10,20,10,25,0.00,0,,260
2013-4-21,80,66,53,13,7,-2,19,11,4,29.97,29.90,29.84,10,10,10,16,8,22,0.00,0,,245
2013-4-22,82,65,48,17,10,4,27,13,6,29.92,29.83,29.74,10,10,10,21,10,29,0.00,0,,258
2013-4-23,79,70,62,19,15,11,18,13,8,29.81,29.74,29.70,10,10,10,24,14,33,0.00,0,Rain,240
2013-4-24,80,65,50,22,15,6,31,15,7,29.87,29.81,29.76,10,10,10,17,10,25,0.00,0,,238
2013-4-25,75,64,53,24,16,9,26,15,8,29.96,29.81,29.75,10,10,10,33,18,46,0.00,0,,231
2013-4-26,78,58,39,25,13,-3,43,21,5,30.03,29.98,29.94,10,10,10,15,7,24,0.00,0,,251
2013-4-27,81,64,48,22,15,10,33,15,7,30.22,29.94,29.81,10,10,10,17,8,23,0.00,0,,269
2013-4-28,84,70,55,21,11,4,23,11,5,29.85,29.78,29.68,10,10,10,20,8,23,0.00,0,,257
2013-4-29,84,72,61,17,7,4,15,8,5,30.03,29.75,29.62,10,10,10,16,7,50,0.00,0,,262
2013-4-30,84,70,55,22,14,10,21,12,6,29.94,29.71,29.65,10,10,10,24,12,31,0.00,0,,241